Terminal Aerodrome Forecast
Issued by NWS Springfield, MO

Home | Current Version | Previous Version | Text Only | Print | Product List | Glossary On
Versions: 1 2 3 4 5 6 7 8 9 10 11 12 13 14 15 16 17 18 19 20 21 22 23 24
000
FTUS43 KSGF 222300
TAFSGF
TAF
KSGF 222335Z 2300/2324 16013KT P6SM BKN007 OVC015
     FM230200 16014KT P6SM FEW007 OVC040
     FM230700 15015G21KT 6SM BR BKN008 OVC040 WS020/19045KT
     FM231300 15014G20KT 3SM -RA BR VCTS OVC010CB
     FM231800 17010KT 5SM -DZ OVC012=

USA.gov is the U.S. government's official web portal to all federal, state and local government web resources and services.